Home > Products > Valid Products > MTR

000
SAZS31 NSTU 020359
MTRPPG
METAR NSTU 020357Z 10010KT 12SM FEW017 FEW090 30/25 A2975 RMK SLP076
 T03000254=




000
SAZS31 NSTU 020257
MTRPPG
METAR NSTU 020254Z 09010KT 12SM FEW017 FEW090 30/26 A2974 RMK SLP073
 60001 8/170 T02960255 56019=




000
SAZS31 NSTU 020158
MTRPPG
METAR NSTU 020153Z VRB05KT 12SM SCT016TCU BKN045 29/25 A2976 RMK TCU
NE SLP078 T02910253=




000
SAZS31 NSTU 020158
MTRPPG
METAR NSTU 020153Z VRB05KT 12SM SCT016TCU BKN045 29/25 A2976 RMK TCU
NE SLP078 T02910253=




000
SAZS31 NSTU 020055
MTRPPG
METAR NSTU 020050Z VRB05KT 11SM SCT016TCU BKN045 29/27 A2977 RMK TCU
N-NE SLP081 T02920268=




000
SAZS31 NSTU 012357
MTRPPG
METAR NSTU 012350Z VRB04KT 11SM -SHRA SCT015TCU BKN040 26/25 A2980
RMK TCU ALQDS SLP091 60024 8/200 T02640246 10296 20264 56017=




000
SAZS31 NSTU 012357
MTRPPG
METAR NSTU 012350Z VRB04KT 11SM -SHRA SCT015TCU BKN040 26/25 A2980
RMK TCU ALQDS SLP091 60024 8/200 T02640246 10296 20264 56017=




000
SAZS31 NSTU 012254
MTRPPG
METAR NSTU 012250Z 08019KT 5SM -SHRA FEW007 BKN016TCU BKN040 BKN110
28/26 A2982 RMK SHRAB47 TCU ALQDS SLP100 T02830258=




000
SAZS31 NSTU 012254
MTRPPG
METAR NSTU 012250Z 08019KT 5SM -SHRA FEW007 BKN016TCU BKN040 BKN110
28/26 A2982 RMK SHRAB47 TCU ALQDS SLP100 T02830258=




000
SAZS31 NSTU 012153
MTRPPG
METAR NSTU 012150Z 10009KT 11SM SCT016TCU BKN040 29/26 A2984 RMK TCU
SE-S SLP105 T02940258=




000
SAZS31 NSTU 012153
MTRPPG
METAR NSTU 012150Z 10009KT 11SM SCT016TCU BKN040 29/26 A2984 RMK TCU
SE-S SLP105 T02940258=




000
SAZS31 NSTU 012054
MTRPPG
METAR NSTU 012050Z 08008KT 11SM FEW016 SCT040 30/26 A2985 RMK
SHRAE16 SLP108 60000 8/800 T02960257 52015=




000
SAZS31 NSTU 011955
MTRPPG
METAR NSTU 011950Z 11013KT 10SM -SHRA FEW008 SCT016TCU BKN040 28/26
A2984 RMK SHRAB34 TCU ALQDS SLP107 T02790257=




000
SAZS31 NSTU 011955
MTRPPG
METAR NSTU 011950Z 11013KT 10SM -SHRA FEW008 SCT016TCU BKN040 28/26
A2984 RMK SHRAB34 TCU ALQDS SLP107 T02790257=




000
SAZS31 NSTU 011856
MTRPPG
METAR NSTU 011852Z 12010KT 11SM SCT017TCU BKN040 28/26 A2982 RMK TCU
ALQDS SLP100 T02840255=




000
SAZS31 NSTU 011856
MTRPPG
METAR NSTU 011852Z 12010KT 11SM SCT017TCU BKN040 28/26 A2982 RMK TCU
ALQDS SLP100 T02840255=




000
SAZS31 NSTU 011800
MTRPPG
METAR NSTU 011755Z 11012KT 10SM SCT017 BKN040 BKN100 27/26 A2981 RMK
SHRAB25E45 SLP093 60030 8/870 T02710255 10274 20257 52010=




000
SAZS31 NSTU 011800
MTRPPG
METAR NSTU 011755Z 11012KT 10SM SCT017 BKN040 BKN100 27/26 A2981 RMK
SHRAB25E45 SLP093 60030 8/870 T02710255 10274 20257 52010=




000
SAZS31 NSTU 011702
MTRPPG
METAR NSTU 011655Z 13007KT 10SM SCT017 BKN040 BKN100 27/25 A2979 RMK
SHRAE20 SLP086 T02740252=




000
SAZS31 NSTU 011559
MTRPPG
METAR NSTU 011556Z VRB05KT 7SM -SHRA SCT017 BKN040 BKN100 27/25
A2978 RMK SHRAB15 SLP085 T02670249=




000
SAZS31 NSTU 011527
MTRPPG
METAR NSTU 011452Z 00000KT 10SM SCT019 BKN220 26/25 A2978 RMK SLP083
60000 8/101 T02570246 56019=




000
SAZS31 NSTU 011527
MTRPPG
METAR NSTU 011452Z 00000KT 10SM SCT019 BKN220 26/25 A2978 RMK SLP083
60000 8/101 T02570246 56019=




000
SAZS31 NSTU 011405
MTRPPG
METAR NSTU 011356Z VRB03KT 10SM SCT019 BKN220 26/25 A2978 RMK SLP086
T02570246=




000
SAZS31 NSTU 011303
MTRPPG
METAR NSTU 011257Z VRB03KT 10SM SCT020 BKN250 26/25 A2980 RMK
SHRAE10 SLP093 T02640250=




000
SAZS31 NSTU 011303
MTRPPG
METAR NSTU 011257Z VRB03KT 10SM SCT020 BKN250 26/25 A2980 RMK
SHRAE10 SLP093 T02640250=




000
SAZS31 NSTU 011302
MTRPPG
METAR NSTU 011153Z VRB04KT 10SM -SHRA SCT020TCU BKN250 26/25 A2983
RMK SHRAB15 TCU OHD SLP102 60001 70004 8/201 T02600248 10272 20260
57010=




000
SAZS31 NSTU 011302
MTRPPG
METAR NSTU 011153Z VRB04KT 10SM -SHRA SCT020TCU BKN250 26/25 A2983
RMK SHRAB15 TCU OHD SLP102 60001 70004 8/201 T02600248 10272 20260
57010=




000
SAZS31 NSTU 011101
MTRPPG
METAR NSTU 011053Z VRB05KT 10SM SCT020 BKN250 26/25 A2985 RMK SLP108
T02630248 403190248=




000
SAZS31 NSTU 011101
MTRPPG
METAR NSTU 011053Z VRB05KT 10SM SCT020 BKN250 26/25 A2985 RMK SLP108
T02630248 403190248=




000
SAZS31 NSTU 010958
MTRPPG
METAR NSTU 010955Z VRB03KT 10SM SCT020TCU BKN250 26/25 A2986 RMK TCU
OHD SLP112 T02610246=




000
SAZS31 NSTU 010852
MTRPPG
METAR NSTU 010850Z VRB02KT 10SM FEW020 SCT250 26/24 A2986 RMK SLP112
8/101 T02620244 52019=




000
SAZS31 NSTU 010751
MTRPPG
METAR NSTU 010750Z VRB03KT 10SM FEW020 SCT110 SCT250 26/25 A2985 RMK
SLP108 T02630248=




000
SAZS31 NSTU 010653
MTRPPG
METAR NSTU 010650Z VRB03KT 10SM FEW019 SCT110 SCT250 27/25 A2983 RMK
SLP103 T02660248=




000
SAZS31 NSTU 010653
MTRPPG
METAR NSTU 010650Z VRB03KT 10SM FEW019 SCT110 SCT250 27/25 A2983 RMK
SLP103 T02660248=




000
SAZS31 NSTU 010554
MTRPPG
METAR NSTU 010550Z VRB03KT 10SM SCT018 SCT040 SCT110 BKN250 27/25
A2981 RMK SLP093 60003 8/871 T02720251 10313 20251 52007=




000
SAZS31 NSTU 010554
MTRPPG
METAR NSTU 010550Z VRB03KT 10SM SCT018 SCT040 SCT110 BKN250 27/25
A2981 RMK SLP093 60003 8/871 T02720251 10313 20251 52007=




000
SAZS31 NSTU 010454
MTRPPG
METAR NSTU 010450Z VRB04KT 12SM SCT017TCU SCT040 SCT110 BKN250 27/25
A2980 RMK TCU S SLP091 T02730249=




000
SAZS31 NSTU 010454
MTRPPG
METAR NSTU 010450Z VRB04KT 12SM SCT017TCU SCT040 SCT110 BKN250 27/25
A2980 RMK TCU S SLP091 T02730249=




000
SAZS31 NSTU 010352
MTRPPG
METAR NSTU 010350Z VRB05KT 12SM SCT018TCU BKN040 BKN110 29/25 A2978
RMK TCU SE SLP086 T02940253=




000
SAZS31 NSTU 010352
MTRPPG
METAR NSTU 010350Z VRB05KT 12SM SCT018TCU BKN040 BKN110 29/25 A2978
RMK TCU SE SLP086 T02940253=




000
SAZS31 NSTU 010252
MTRPPG
METAR NSTU 010250Z VRB03KT 12SM SCT018TCU BKN040 BKN110 30/25 A2978
RMK TCU W SLP086 8/870 T02970250 56010=




000
SAZS31 NSTU 010252
MTRPPG
METAR NSTU 010250Z VRB03KT 12SM SCT018TCU BKN040 BKN110 30/25 A2978
RMK TCU W SLP086 8/870 T02970250 56010=




000
SAZS31 NSTU 010155
MTRPPG
METAR NSTU 010152Z VRB05KT 12SM VCSH SCT018TCU BKN040 30/25 A2978
RMK VCSH NE TCU W-N-E SLP086 T02990249=




000
SAZS31 NSTU 010155
MTRPPG
METAR NSTU 010152Z VRB05KT 12SM VCSH SCT018TCU BKN040 30/25 A2978
RMK VCSH NE TCU W-N-E SLP086 T02990249=




000
SAZS31 NSTU 010051
MTRPPG
METAR NSTU 010050Z VRB06KT 12SM SCT018TCU BKN040 31/25 A2980 RMK TCU
NW-N SLP091 T03130253=




000
SAZS31 NSTU 010001
MTRPPG
METAR NSTU 282350Z 09009KT 12SM SCT018TCU BKN040 31/27 A2981 RMK TCU
ALQDS SLP097 60000 8/800 T03120265 10313 20257 56019=




000
SAZS31 NSTU 010001
MTRPPG
METAR NSTU 282350Z 09009KT 12SM SCT018TCU BKN040 31/27 A2981 RMK TCU
ALQDS SLP097 60000 8/800 T03120265 10313 20257 56019=




000
SAZS31 NSTU 312258
MTRPPG
METAR NSTU 312252Z VRB06KT 12SM SCT017TCU SCT040 BKN100 31/26 A2984
RMK RAE32 TCU ALQDS SLP105 T03130264=




000
SAZS31 NSTU 312200

MTRPPG
METAR NSTU 312151Z VRB05KT 12SM RA SCT017TCU BKN040 BKN100 28/25
A2986 RMK RAB43 TCU ALQDS SLP112 T02810253=




000
SAZS31 NSTU 312100
MTRPPG
METAR NSTU 312052Z VRB05KT 12SM VCSH SCT017TCU BKN040 BKN100 30/25
A2987 RMK VCSH S TCU ALQDS SLP115 8/270 T02980253 52015=




000
SAZS31 NSTU 311956
MTRPPG
METAR NSTU 311951Z VRB04KT 12SM SCT017TCU SCT230 30/26 A2986 RMK
SLP112 T02960256=





000
SAZS31 NSTU 311853
MTRPPG
METAR NSTU 311850Z VRB02KT 12SM SCT017TCU 28/25 A2984 RMK SLP105
T02780252=




000
SAZS31 NSTU 311815
MTRPPG
METAR NSTU 311754Z VRB03KT 12SM FEW017TCU 26/25 A2982 RMK TCU DSNT
NE-E AND SW-W SLP100 8/100 T02570246 10257 20248 51010=




000
SAZS31 NSTU 311815
MTRPPG
METAR NSTU 311754Z VRB03KT 12SM FEW017TCU 26/25 A2982 RMK TCU DSNT
NE-E AND SW-W SLP100 8/100 T02570246 10257 20248 51010=




000
SAZS31 NSTU 311700
MTRPPG
METAR NSTU 311657Z VRB03KT 10SM FEW021 25/24 A2981 RMK SLP095
T02490239=




000
SAZS31 NSTU 311559
MTRPPG
METAR NSTU 311556Z VRB03KT 10SM FEW025 SCT200 25/24 A2979 RMK SLP090
 T02480238=




000
SAZS31 NSTU 311454
MTRPPG
METAR NSTU 311452Z VRB03KT 10SM FEW025 FEW200 25/24 A2979 RMK SLP090
 8/108 T02480238 56012=




000
SAZS31 NSTU 311354
MTRPPG
METAR NSTU 311352Z VRB02KT 10SM FEW025 FEW200 25/24 A2980 RMK SLP093
 T02510240=




000
SAZS31 NSTU 311354
MTRPPG
METAR NSTU 311352Z VRB02KT 10SM FEW025 FEW200 25/24 A2980 RMK SLP093
 T02510240=




000
SAZS31 NSTU 311259
MTRPPG
METAR NSTU 311254Z VRB04KT 10SM FEW022 SCT200 25/24 A2981 RMK SLP097
 T02520241=




000
SAZS31 NSTU 311259
MTRPPG
METAR NSTU 311254Z VRB04KT 10SM FEW022 SCT200 25/24 A2981 RMK SLP097
 T02520241=




000
SAZS31 NSTU 311210
MTRPPG
METAR NSTU 311051Z VRB03KT 10SM FEW022 SCT200 26/24 A2985 RMK SLP108
 T02550243 402940249=




000
SAZS31 NSTU 311210
MTRPPG
METAR NSTU 311051Z VRB03KT 10SM FEW022 SCT200 26/24 A2985 RMK SLP108
 T02550243 402940249=




000
SAZS31 NSTU 311210
MTRPPG
METAR NSTU 311150Z VRB03KT 10SM FEW022 SCT200 25/24 A2983 RMK SLP102
 70018 8/108 T02530242 10272 20253 56014=




000
SAZS31 NSTU 310955
MTRPPG
METAR NSTU 310953Z 00000KT 10SM FEW022 SCT200 26/25 A2986 RMK SLP113
 T02580245=




000
SAZS31 NSTU 310855
MTRPPG
METAR NSTU 310852Z VRB02KT 10SM SCT022 BKN110 26/25 A2987 RMK SLP115
8/170 T02620247 52015=




000
SAZS31 NSTU 310757
MTRPPG
METAR NSTU 310752Z 00000KT 10SM SCT022 BKN110 27/25 A2986 RMK SLP113
T02650247=




000
SAZS31 NSTU 310703
MTRPPG
METAR NSTU 310653Z VRB03KT 10SM SCT021TCU SCT110 BKN250 27/25 A2985
RMK TCU ALQDS SLP108 T02720245=




000
SAZS31 NSTU 310703
MTRPPG
METAR NSTU 310653Z VRB03KT 10SM SCT021TCU SCT110 BKN250 27/25 A2985
RMK TCU ALQDS SLP108 T02720245=




000
SAZS31 NSTU 310554
MTRPPG
METAR NSTU 310551Z VRB03KT 10SM SCT021TCU SCT110 BKN250 27/25 A2982
RMK TCU ALQDS SLP100 60009 8/271 T02690247 10293 20269 52014=




000
SAZS31 NSTU 310554
MTRPPG
METAR NSTU 310551Z VRB03KT 10SM SCT021TCU SCT110 BKN250 27/25 A2982
RMK TCU ALQDS SLP100 60009 8/271 T02690247 10293 20269 52014=




000
SAZS31 NSTU 310454
MTRPPG
METAR NSTU 310452Z 00000KT 12SM SCT022TCU SCT110 BKN250 28/25 A2981
RMK TCU ALQDS SLP093 T02810251=




000
SAZS31 NSTU 310358
MTRPPG
METAR NSTU 310356Z VRB04KT 12SM SCT017TCU BKN120 29/25 A2979 RMK TCU
ALQDS SLP090 T02890250=




000
SAZS31 NSTU 310254
MTRPPG
METAR NSTU 310250Z VRB02KT 12SM SCT017TCU SCT045 BKN120 29/25 A2979
RMK TCU ALQDS SLP086 60009 8/870 T02900245 56017=




000
SAZS31 NSTU 310155
MTRPPG
METAR NSTU 310153Z VRB04KT 11SM SCT016 SCT045 BKN110 29/26 A2980 RMK
 SHRAE35 SLP093 T02920259=




000
SAZS31 NSTU 310155
MTRPPG
METAR NSTU 310153Z VRB04KT 11SM SCT016 SCT045 BKN110 29/26 A2980 RMK
 SHRAE35 SLP093 T02920259=




000
SAZS31 NSTU 310055
MTRPPG
METAR NSTU 310054Z VRB04KT 11SM -SHRA SCT015 SCT045 BKN110 BKN230
27/25 A2981 RMK SLP097 T02730247=




000
SAZS31 NSTU 310055
MTRPPG
METAR NSTU 310054Z VRB04KT 11SM -SHRA SCT015 SCT045 BKN110 BKN230
27/25 A2981 RMK SLP097 T02730247=




000
SAZS31 NSTU 310003
MTRPPG
METAR NSTU 302355Z 00000KT 12SM SCT015 BKN100 BKN210 29/25 A2983 RMK
RAE30 SLP103 60001 8/128 T02930248 10294 20263 56020=




000
SAZS31 NSTU 310003
MTRPPG
METAR NSTU 302355Z 00000KT 12SM SCT015 BKN100 BKN210 29/25 A2983 RMK
RAE30 SLP103 60001 8/128 T02930248 10294 20263 56020=




000
SAZS31 NSTU 302254
MTRPPG
METAR NSTU 302250Z VRB04KT 10SM RA SCT015TCU BKN100 BKN210 29/26
A2986 RMK RAB34 TCU W-NW SLP112 T02870255=




000
SAZS31 NSTU 302254
MTRPPG
METAR NSTU 302250Z VRB04KT 10SM RA SCT015TCU BKN100 BKN210 29/26
A2986 RMK RAB34 TCU W-NW SLP112 T02870255=




000
SAZS31 NSTU 302157
MTRPPG
METAR NSTU 302154Z VRB05KT 12SM VCSH SCT017TCU BKN110 BKN230 29/24
A2988 RMK VCSH W TCU W SLP119 T02930243=




000
SAZS31 NSTU 302157
MTRPPG
METAR NSTU 302053Z VRB05KT 12SM FEW017 BKN110 BKN230 29/25 A2989 RMK
 SLP124 8/128 T02940250 51008=




000
SAZS31 NSTU 301954
MTRPPG
METAR NSTU 301952Z VRB05KT 12SM FEW017 BKN110 BKN230 29/25 A2989 RMK
 SLP120 T02930252=




000
SAZS31 NSTU 301954
MTRPPG
METAR NSTU 301952Z VRB05KT 12SM FEW017 BKN110 BKN230 29/25 A2989 RMK
 SLP120 T02930252=




000
SAZS31 NSTU 301852
MTRPPG
METAR NSTU 301850Z 00000KT 12SM FEW009 SCT016 BKN110 BKN250 28/25
A2987 RMK SLP117 T02760249=




000
SAZS31 NSTU 301852
MTRPPG
METAR NSTU 301850Z 00000KT 12SM FEW009 SCT016 BKN110 BKN250 28/25
A2987 RMK SLP117 T02760249=




000
SAZS31 NSTU 301752
MTRPPG
METAR NSTU 301750Z VRB04KT 10SM FEW009 SCT016 BKN040 BKN110 OVC250
26/24 A2987 RMK SLP115 60008 8/878 T02630243 10264 20249 52015=




000
SAZS31 NSTU 301752
MTRPPG
METAR NSTU 301750Z VRB04KT 10SM FEW009 SCT016 BKN040 BKN110 OVC250
26/24 A2987 RMK SLP115 60008 8/878 T02630243 10264 20249 52015=




000
SAZS31 NSTU 301651
MTRPPG
METAR NSTU 301650Z VRB05KT 10SM SCT018 BKN040 BKN110 OVC250 26/24
A2985 RMK SLP108 T02580243=




000
SAZS31 NSTU 301650
MTRPPG
METAR NSTU 301550Z 00000KT 10SM SCT018 BKN040 BKN110 OVC250 25/24
A2982 RMK SLP100 T02520240=




000
SAZS31 NSTU 301453

MTRPPG
METAR NSTU 301450Z COR 00000KT 10SM SCT014 BKN040 OVC110 25/24 A2982
RMK SHRAE42 SLP100 60008 8/87/ T02490239 56014=




000
SAZS31 NSTU 301351
MTRPPG
METAR NSTU 301350Z VRB03KT 8SM -SHRA SCT015TCU BKN040 OVC110 26/24
A2983 RMK TCU ALQDS SLP103 T02550244=




000
SAZS31 NSTU 301351
MTRPPG
METAR NSTU 301250Z 00000KT 7SM -SHRA SCT015TCU BKN040 OVC110 26/24
A2985 RMK SHRAB21 TCU OHD SLP108 T02550242=




000
SAZS31 NSTU 301153
MTRPPG
METAR NSTU 301150Z VRB04KT 10SM SCT018 BKN040 BKN110 OVC250 26/25
A2986 RMK SLP113 60000 70037 8/871 T02640245 10270 20250 56010=




000
SAZS31 NSTU 301153
MTRPPG
METAR NSTU 301150Z VRB04KT 10SM SCT018 BKN040 BKN110 OVC250 26/25
A2986 RMK SLP113 60000 70037 8/871 T02640245 10270 20250 56010=




000
SAZS31 NSTU 301125
MTRPPG
METAR NSTU 301050Z VRB05KT 10SM SCT015 BKN040 OVC110 27/25 A2988 RMK
SHRAE04 SLP120 T02660249 403010252=




000
SAZS31 NSTU 301125
MTRPPG
METAR NSTU 301050Z VRB05KT 10SM SCT015 BKN040 OVC110 27/25 A2988 RMK
SHRAE04 SLP120 T02660249 403010252=




000
SAZS31 NSTU 300952
MTRPPG
METAR NSTU 300950Z 13009KT 7SM -SHRA SCT017 BKN040 OVC110 26/25
A2989 RMK SHRAB45 SLP122 T02630251=




000
SAZS31 NSTU 300855
MTRPPG
METAR NSTU 300851Z 00000KT 10SM SCT018 SCT040 BKN110 26/25 A2989 RMK
SLP124 8/870 T02590246 51019=




000
SAZS31 NSTU 300756
MTRPPG
METAR NSTU 300754Z VRB02KT 10SM FEW018 SCT040 BKN110 25/24 A2988 RMK
SLP120 T02540243=




000
SAZS31 NSTU 300756
MTRPPG
METAR NSTU 300754Z VRB02KT 10SM FEW018 SCT040 BKN110 25/24 A2988 RMK
SLP120 T02540243=




000
SAZS31 NSTU 300659
MTRPPG
METAR NSTU 300657Z VRB02KT 10SM SCT018 SCT040 BKN100 OVC200 26/24
A2987 RMK SLP115 T02570243=




000
SAZS31 NSTU 300659
MTRPPG
METAR NSTU 300657Z VRB02KT 10SM SCT018 SCT040 BKN100 OVC200 26/24
A2987 RMK SLP115 T02570243=




000
SAZS31 NSTU 300554
MTRPPG
METAR NSTU 300550Z VRB04KT 10SM SCT016CB SCT040 BKN100 OVC200 25/24
A2984 RMK SHRAE35 CB NW AND SE-SW SLP105 60037 8/328 T02530240 10296
20253 51015=




000
SAZS31 NSTU 300554
MTRPPG
METAR NSTU 300550Z VRB04KT 10SM SCT016CB SCT040 BKN100 OVC200 25/24
A2984 RMK SHRAE35 CB NW AND SE-SW SLP105 60037 8/328 T02530240 10296
20253 51015=




000
SAZS31 NSTU 300509
MTRPPG
METAR NSTU 300454Z VRB03KT 7SM -SHRA SCT020TCU BKN040 OVC110 25/24
A2983 RMK VIS LWR W-NW TCU ALQDS SLP103 T02530241=




000
SAZS31 NSTU 300509
MTRPPG
METAR NSTU 300454Z VRB03KT 7SM -SHRA SCT020TCU BKN040 OVC110 25/24
A2983 RMK VIS LWR W-NW TCU ALQDS SLP103 T02530241=




    US Dept of Commerce
    National Oceanic and Atmospheric Administration
    National Weather Service
    1325 East West Highway
    Silver Spring, MD 20910
    Page Author: NWS Internet Services Team
Disclaimer
Information Quality
Credits
Glossary
Privacy Policy
Freedom of Information Act (FOIA)
About Us
Career Opportunities